sensor_id;sensor_type;location;lat;lon;timestamp;pressure;altitude;pressure_sealevel;temperature;humidity
21944;BME280;11136;48.778;9.126;2024-01-30T00:01:55;98783.69;;;6.62;55.59
21944;BME280;11136;48.778;9.126;2024-01-30T00:04:20;98741.91;;;6.04;55.30
21944;BME280;11136;48.778;9.126;2024-01-30T00:06:45;98594.13;;;5.45;55.49
21944;BME280;11136;48.778;9.126;2024-01-30T00:09:11;98704.81;;;5.95;55.69
21944;BME280;11136;48.778;9.126;2024-01-30T00:11:37;98676.94;;;5.91;56.00
21944;BME280;11136;48.778;9.126;2024-01-30T00:14:03;98673.56;;;5.87;55.89
21944;BME280;11136;48.778;9.126;2024-01-30T00:16:28;98435.09;;;4.34;55.83
21944;BME280;11136;48.778;9.126;2024-01-30T00:18:54;98805.97;;;6.54;55.95
21944;BME280;11136;48.778;9.126;2024-01-30T00:21:21;98774.06;;;6.40;56.14
21944;BME280;11136;48.778;9.126;2024-01-30T00:23:46;98839.19;;;6.51;56.26
21944;BME280;11136;48.778;9.126;2024-01-30T00:26:12;98639.41;;;5.63;55.96
21944;BME280;11136;48.778;9.126;2024-01-30T00:28:38;98742.25;;;5.92;56.65
21944;BME280;11136;48.778;9.126;2024-01-30T00:31:03;98651.34;;;5.61;56.34
21944;BME280;11136;48.778;9.126;2024-01-30T00:33:29;98796.09;;;6.43;56.67
21944;BME280;11136;48.778;9.126;2024-01-30T00:35:55;98756.97;;;6.13;56.31
21944;BME280;11136;48.778;9.126;2024-01-30T00:38:20;98764.78;;;6.05;57.04
21944;BME280;11136;48.778;9.126;2024-01-30T00:40:45;98572.41;;;4.98;56.81
21944;BME280;11136;48.778;9.126;2024-01-30T00:43:11;98789.22;;;6.45;56.62
21944;BME280;11136;48.778;9.126;2024-01-30T00:45:36;98585.28;;;4.90;56.83
21944;BME280;11136;48.778;9.126;2024-01-30T00:48:01;98579.53;;;5.17;57.00
21944;BME280;11136;48.778;9.126;2024-01-30T00:50:27;98668.84;;;5.73;57.04
21944;BME280;11136;48.778;9.126;2024-01-30T00:52:52;98626.28;;;5.47;57.12
21944;BME280;11136;48.778;9.126;2024-01-30T00:55:18;98795.91;;;6.49;57.07
21944;BME280;11136;48.778;9.126;2024-01-30T00:57:43;98876.59;;;6.49;57.29
21944;BME280;11136;48.778;9.126;2024-01-30T01:00:08;98707.31;;;5.61;57.33
21944;BME280;11136;48.778;9.126;2024-01-30T01:02:35;98798.97;;;6.29;57.31
21944;BME280;11136;48.778;9.126;2024-01-30T01:05:00;98741.75;;;6.10;57.49
21944;BME280;11136;48.778;9.126;2024-01-30T01:07:26;98595.56;;;5.21;57.47
21944;BME280;11136;48.778;9.126;2024-01-30T01:09:51;98761.91;;;6.19;57.53
21944;BME280;11136;48.778;9.126;2024-01-30T01:12:16;98770.50;;;6.15;57.68
21944;BME280;11136;48.778;9.126;2024-01-30T01:14:42;98769.56;;;6.18;57.36
21944;BME280;11136;48.778;9.126;2024-01-30T01:17:07;98553.94;;;4.91;57.95
21944;BME280;11136;48.778;9.126;2024-01-30T01:19:32;98798.66;;;6.41;58.08
21944;BME280;11136;48.778;9.126;2024-01-30T01:21:58;98758.63;;;6.14;58.20
21944;BME280;11136;48.778;9.126;2024-01-30T01:24:23;98634.94;;;5.39;57.77
21944;BME280;11136;48.778;9.126;2024-01-30T01:26:49;98811.25;;;6.15;58.30
21944;BME280;11136;48.778;9.126;2024-01-30T01:29:14;98732.22;;;5.82;58.22
21944;BME280;11136;48.778;9.126;2024-01-30T01:31:41;98712.78;;;5.80;58.26
21944;BME280;11136;48.778;9.126;2024-01-30T01:34:12;98795.47;;;6.33;58.11
21944;BME280;11136;48.778;9.126;2024-01-30T01:36:39;98800.63;;;6.30;58.20
21944;BME280;11136;48.778;9.126;2024-01-30T01:39:04;98615.88;;;5.22;58.32
21944;BME280;11136;48.778;9.126;2024-01-30T01:41:33;98563.38;;;4.86;57.93
21944;BME280;11136;48.778;9.126;2024-01-30T01:43:59;98593.41;;;5.06;58.78
21944;BME280;11136;48.778;9.126;2024-01-30T01:46:26;98637.44;;;5.06;58.63
21944;BME280;11136;48.778;9.126;2024-01-30T01:48:52;98618.94;;;5.01;58.37
21944;BME280;11136;48.778;9.126;2024-01-30T01:51:18;98798.25;;;6.24;58.58
21944;BME280;11136;48.778;9.126;2024-01-30T01:53:44;98637.00;;;5.25;58.42
21944;BME280;11136;48.778;9.126;2024-01-30T01:56:09;98526.78;;;4.57;58.35
21944;BME280;11136;48.778;9.126;2024-01-30T01:58:36;98422.03;;;3.75;58.41
21944;BME280;11136;48.778;9.126;2024-01-30T02:01:02;98781.78;;;6.05;58.80
21944;BME280;11136;48.778;9.126;2024-01-30T02:03:27;98660.16;;;5.12;58.53
21944;BME280;11136;48.778;9.126;2024-01-30T02:05:53;98518.72;;;4.40;58.82
21944;BME280;11136;48.778;9.126;2024-01-30T02:08:19;98543.84;;;4.51;58.45
21944;BME280;11136;48.778;9.126;2024-01-30T02:10:45;98562.19;;;4.64;58.83
21944;BME280;11136;48.778;9.126;2024-01-30T02:13:10;98696.69;;;5.45;58.59
21944;BME280;11136;48.778;9.126;2024-01-30T02:15:36;98709.66;;;5.35;58.38
21944;BME280;11136;48.778;9.126;2024-01-30T02:18:01;98730.72;;;5.40;58.87
21944;BME280;11136;48.778;9.126;2024-01-30T02:20:28;98589.00;;;4.77;58.51
21944;BME280;11136;48.778;9.126;2024-01-30T02:22:55;98815.09;;;5.96;59.06
21944;BME280;11136;48.778;9.126;2024-01-30T02:25:30;98801.66;;;5.89;58.84
21944;BME280;11136;48.778;9.126;2024-01-30T02:27:55;98547.13;;;4.19;58.74
21944;BME280;11136;48.778;9.126;2024-01-30T02:30:21;98573.47;;;4.52;59.15
21944;BME280;11136;48.778;9.126;2024-01-30T02:32:46;98733.47;;;5.31;58.81
21944;BME280;11136;48.778;9.126;2024-01-30T02:35:11;98633.09;;;4.73;59.27
21944;BME280;11136;48.778;9.126;2024-01-30T02:37:37;98547.00;;;4.23;58.62
21944;BME280;11136;48.778;9.126;2024-01-30T02:40:02;98449.03;;;3.78;58.93
21944;BME280;11136;48.778;9.126;2024-01-30T02:42:27;98413.78;;;3.25;58.78
21944;BME280;11136;48.778;9.126;2024-01-30T02:44:53;98631.59;;;4.66;59.08
21944;BME280;11136;48.778;9.126;2024-01-30T02:47:18;98606.31;;;4.59;58.84
21944;BME280;11136;48.778;9.126;2024-01-30T02:49:43;98722.63;;;5.24;59.18
21944;BME280;11136;48.778;9.126;2024-01-30T02:52:09;98598.41;;;4.35;59.05
21944;BME280;11136;48.778;9.126;2024-01-30T02:54:34;98309.31;;;2.72;59.02
21944;BME280;11136;48.778;9.126;2024-01-30T02:56:59;98594.56;;;4.55;58.96
21944;BME280;11136;48.778;9.126;2024-01-30T02:59:25;98787.53;;;5.76;59.10
21944;BME280;11136;48.778;9.126;2024-01-30T03:01:52;98495.94;;;3.98;59.19
21944;BME280;11136;48.778;9.126;2024-01-30T03:04:17;98667.69;;;4.80;58.79
21944;BME280;11136;48.778;9.126;2024-01-30T03:06:46;98798.72;;;5.70;59.02
21944;BME280;11136;48.778;9.126;2024-01-30T03:09:16;98730.78;;;5.37;58.83
21944;BME280;11136;48.778;9.126;2024-01-30T03:11:42;98534.41;;;4.19;59.08
21944;BME280;11136;48.778;9.126;2024-01-30T03:14:07;98643.22;;;4.76;59.16
21944;BME280;11136;48.778;9.126;2024-01-30T03:16:36;98596.41;;;4.47;58.81
21944;BME280;11136;48.778;9.126;2024-01-30T03:19:01;98517.38;;;3.84;59.19
21944;BME280;11136;48.778;9.126;2024-01-30T03:21:28;98717.75;;;5.13;59.04
21944;BME280;11136;48.778;9.126;2024-01-30T03:23:54;98726.00;;;4.86;59.24
21944;BME280;11136;48.778;9.126;2024-01-30T03:26:19;98783.22;;;5.42;59.43
21944;BME280;11136;48.778;9.126;2024-01-30T03:28:44;98320.69;;;2.50;59.55
21944;BME280;11136;48.778;9.126;2024-01-30T03:31:09;98660.28;;;4.69;59.61
21944;BME280;11136;48.778;9.126;2024-01-30T03:33:36;98790.94;;;5.38;59.07
21944;BME280;11136;48.778;9.126;2024-01-30T03:36:04;98703.13;;;4.86;59.80
21944;BME280;11136;48.778;9.126;2024-01-30T03:38:29;98747.47;;;5.11;59.41
21944;BME280;11136;48.778;9.126;2024-01-30T03:40:54;98773.41;;;5.27;59.45
21944;BME280;11136;48.778;9.126;2024-01-30T03:43:20;98662.63;;;4.38;59.08
21944;BME280;11136;48.778;9.126;2024-01-30T03:45:45;98787.75;;;5.30;59.67
21944;BME280;11136;48.778;9.126;2024-01-30T03:48:10;98781.19;;;5.21;59.77
21944;BME280;11136;48.778;9.126;2024-01-30T03:50:36;98645.88;;;4.31;59.75
21944;BME280;11136;48.778;9.126;2024-01-30T03:53:01;98638.03;;;3.98;59.19
21944;BME280;11136;48.778;9.126;2024-01-30T03:55:26;98497.00;;;3.47;59.42
21944;BME280;11136;48.778;9.126;2024-01-30T03:57:52;98642.13;;;4.06;59.52
21944;BME280;11136;48.778;9.126;2024-01-30T04:00:17;98824.38;;;5.22;59.24
21944;BME280;11136;48.778;9.126;2024-01-30T04:02:42;98700.16;;;4.66;59.75
21944;BME280;11136;48.778;9.126;2024-01-30T04:05:08;98623.63;;;4.00;59.18
21944;BME280;11136;48.778;9.126;2024-01-30T04:07:33;98630.66;;;3.38;59.77
21944;BME280;11136;48.778;9.126;2024-01-30T04:09:58;98373.53;;;2.67;59.15
21944;BME280;11136;48.778;9.126;2024-01-30T04:12:24;98442.25;;;2.95;59.40
21944;BME280;11136;48.778;9.126;2024-01-30T04:14:49;98787.09;;;5.20;59.33
21944;BME280;11136;48.778;9.126;2024-01-30T04:17:14;98832.84;;;5.21;59.17
21944;BME280;11136;48.778;9.126;2024-01-30T04:19:40;98495.97;;;3.11;59.69
21944;BME280;11136;48.778;9.126;2024-01-30T04:22:05;98709.53;;;4.64;59.65
21944;BME280;11136;48.778;9.126;2024-01-30T04:24:31;98780.34;;;5.19;59.73
21944;BME280;11136;48.778;9.126;2024-01-30T04:26:56;98582.41;;;3.89;59.96
21944;BME280;11136;48.778;9.126;2024-01-30T04:29:21;98811.81;;;5.13;59.64
21944;BME280;11136;48.778;9.126;2024-01-30T04:31:47;98780.56;;;5.10;59.89
21944;BME280;11136;48.778;9.126;2024-01-30T04:34:13;98783.13;;;5.08;60.24
21944;BME280;11136;48.778;9.126;2024-01-30T04:36:38;98472.47;;;3.04;60.02
21944;BME280;11136;48.778;9.126;2024-01-30T04:39:03;98533.72;;;3.26;60.08
21944;BME280;11136;48.778;9.126;2024-01-30T04:41:29;98746.63;;;4.71;60.20
21944;BME280;11136;48.778;9.126;2024-01-30T04:43:56;98788.44;;;4.96;60.24
21944;BME280;11136;48.778;9.126;2024-01-30T04:46:22;98600.25;;;3.83;59.73
21944;BME280;11136;48.778;9.126;2024-01-30T04:48:47;98339.63;;;2.29;60.18
21944;BME280;11136;48.778;9.126;2024-01-30T04:51:12;98560.06;;;3.65;59.95
21944;BME280;11136;48.778;9.126;2024-01-30T04:53:37;98594.31;;;3.84;60.06
21944;BME280;11136;48.778;9.126;2024-01-30T04:56:05;98680.41;;;3.93;60.26
21944;BME280;11136;48.778;9.126;2024-01-30T04:58:30;98685.44;;;4.41;60.49
21944;BME280;11136;48.778;9.126;2024-01-30T05:00:56;98770.25;;;4.76;60.41
21944;BME280;11136;48.778;9.126;2024-01-30T05:03:21;98457.84;;;2.70;60.18
21944;BME280;11136;48.778;9.126;2024-01-30T05:05:48;98675.50;;;4.30;60.28
21944;BME280;11136;48.778;9.126;2024-01-30T05:08:13;98825.66;;;5.00;60.81
21944;BME280;11136;48.778;9.126;2024-01-30T05:10:38;98562.75;;;3.56;60.13
21944;BME280;11136;48.778;9.126;2024-01-30T05:13:03;98793.50;;;4.99;60.21
21944;BME280;11136;48.778;9.126;2024-01-30T05:15:29;98733.69;;;4.40;60.27
21944;BME280;11136;48.778;9.126;2024-01-30T05:17:54;98611.22;;;3.39;60.27
21944;BME280;11136;48.778;9.126;2024-01-30T05:20:20;98682.78;;;4.03;60.13
21944;BME280;11136;48.778;9.126;2024-01-30T05:22:45;98541.38;;;3.24;60.57
21944;BME280;11136;48.778;9.126;2024-01-30T05:25:12;98653.66;;;3.77;60.59
21944;BME280;11136;48.778;9.126;2024-01-30T05:27:37;98580.38;;;3.63;60.38
21944;BME280;11136;48.778;9.126;2024-01-30T05:30:05;98497.69;;;3.10;60.09
21944;BME280;11136;48.778;9.126;2024-01-30T05:32:31;98624.16;;;3.72;60.50
21944;BME280;11136;48.778;9.126;2024-01-30T05:34:56;98688.31;;;3.26;60.79
21944;BME280;11136;48.778;9.126;2024-01-30T05:37:21;98527.81;;;3.25;60.44
21944;BME280;11136;48.778;9.126;2024-01-30T05:39:47;98358.38;;;2.16;60.30
21944;BME280;11136;48.778;9.126;2024-01-30T05:42:12;98738.63;;;4.47;60.68
21944;BME280;11136;48.778;9.126;2024-01-30T05:44:37;98798.06;;;4.82;60.42
21944;BME280;11136;48.778;9.126;2024-01-30T05:47:03;98715.22;;;4.33;60.83
21944;BME280;11136;48.778;9.126;2024-01-30T05:49:28;98744.84;;;4.33;60.17
21944;BME280;11136;48.778;9.126;2024-01-30T05:51:53;98718.66;;;4.29;60.33
21944;BME280;11136;48.778;9.126;2024-01-30T05:54:19;98604.94;;;3.60;60.07
21944;BME280;11136;48.778;9.126;2024-01-30T05:56:44;98814.13;;;4.84;60.86
21944;BME280;11136;48.778;9.126;2024-01-30T05:59:09;98809.03;;;4.84;60.75
21944;BME280;11136;48.778;9.126;2024-01-30T06:01:35;98315.09;;;1.80;60.42
21944;BME280;11136;48.778;9.126;2024-01-30T06:04:01;98638.44;;;3.77;60.69
21944;BME280;11136;48.778;9.126;2024-01-30T06:06:26;98770.69;;;4.51;60.85
21944;BME280;11136;48.778;9.126;2024-01-30T06:08:52;98723.78;;;4.26;60.52
21944;BME280;11136;48.778;9.126;2024-01-30T06:11:20;98449.19;;;2.33;60.82
21944;BME280;11136;48.778;9.126;2024-01-30T06:13:45;98158.09;;;0.36;60.69
21944;BME280;11136;48.778;9.126;2024-01-30T06:16:12;98397.97;;;2.19;60.85
21944;BME280;11136;48.778;9.126;2024-01-30T06:18:37;98706.53;;;3.98;60.82
21944;BME280;11136;48.778;9.126;2024-01-30T06:21:04;98807.66;;;4.68;61.24
21944;BME280;11136;48.778;9.126;2024-01-30T06:23:30;98811.06;;;4.67;61.09
21944;BME280;11136;48.778;9.126;2024-01-30T06:25:55;98750.00;;;4.26;60.76
21944;BME280;11136;48.778;9.126;2024-01-30T06:28:20;98581.97;;;3.21;60.77
21944;BME280;11136;48.778;9.126;2024-01-30T06:30:46;98627.84;;;3.54;61.07
21944;BME280;11136;48.778;9.126;2024-01-30T06:33:14;98615.06;;;3.11;60.83
21944;BME280;11136;48.778;9.126;2024-01-30T06:35:40;98789.66;;;4.35;61.02
21944;BME280;11136;48.778;9.126;2024-01-30T06:38:06;98816.09;;;4.68;60.85
21944;BME280;11136;48.778;9.126;2024-01-30T06:40:31;98764.25;;;4.35;61.27
21944;BME280;11136;48.778;9.126;2024-01-30T06:42:57;98670.66;;;3.72;61.20
21944;BME280;11136;48.778;9.126;2024-01-30T06:45:22;98524.25;;;2.88;61.02
21944;BME280;11136;48.778;9.126;2024-01-30T06:47:47;98814.34;;;4.72;61.36
21944;BME280;11136;48.778;9.126;2024-01-30T06:50:13;98797.09;;;4.44;61.02
21944;BME280;11136;48.778;9.126;2024-01-30T06:52:38;98546.00;;;2.99;61.01
21944;BME280;11136;48.778;9.126;2024-01-30T06:55:03;98734.31;;;4.08;61.12
21944;BME280;11136;48.778;9.126;2024-01-30T06:57:29;98537.56;;;3.00;60.52
21944;BME280;11136;48.778;9.126;2024-01-30T06:59:55;98854.16;;;4.71;61.11
21944;BME280;11136;48.778;9.126;2024-01-30T07:02:21;98659.25;;;2.93;60.95
21944;BME280;11136;48.778;9.126;2024-01-30T07:04:46;98820.06;;;4.38;60.67
21944;BME280;11136;48.778;9.126;2024-01-30T07:07:12;98492.47;;;2.68;60.92
21944;BME280;11136;48.778;9.126;2024-01-30T07:09:38;98821.22;;;4.67;60.84
21944;BME280;11136;48.778;9.126;2024-01-30T07:12:04;98716.06;;;3.87;60.42
21944;BME280;11136;48.778;9.126;2024-01-30T07:14:35;98534.00;;;2.58;60.67
21944;BME280;11136;48.778;9.126;2024-01-30T07:17:02;98584.09;;;2.95;60.83
21944;BME280;11136;48.778;9.126;2024-01-30T07:19:27;98432.44;;;2.27;61.14
21944;BME280;11136;48.778;9.126;2024-01-30T07:21:53;98538.75;;;2.80;61.48
21944;BME280;11136;48.778;9.126;2024-01-30T07:24:18;98902.56;;;4.64;61.04
21944;BME280;11136;48.778;9.126;2024-01-30T07:26:43;98715.94;;;3.93;61.70
21944;BME280;11136;48.778;9.126;2024-01-30T07:29:09;98734.25;;;4.11;61.23
21944;BME280;11136;48.778;9.126;2024-01-30T07:31:34;98335.53;;;1.68;61.96
21944;BME280;11136;48.778;9.126;2024-01-30T07:33:59;98603.97;;;3.19;61.66
21944;BME280;11136;48.778;9.126;2024-01-30T07:36:24;98819.69;;;4.59;61.49
21944;BME280;11136;48.778;9.126;2024-01-30T07:38:50;98597.72;;;3.37;61.16
21944;BME280;11136;48.778;9.126;2024-01-30T07:41:15;98731.31;;;4.32;61.52
21944;BME280;11136;48.778;9.126;2024-01-30T07:43:40;98640.28;;;3.69;61.33
21944;BME280;11136;48.778;9.126;2024-01-30T07:46:05;98704.38;;;3.77;61.21
21944;BME280;11136;48.778;9.126;2024-01-30T07:48:33;98830.78;;;4.97;61.65
21944;BME280;11136;48.778;9.126;2024-01-30T07:50:59;98551.41;;;3.29;61.22
21944;BME280;11136;48.778;9.126;2024-01-30T07:53:24;98678.88;;;3.86;61.19
21944;BME280;11136;48.778;9.126;2024-01-30T07:55:49;98834.66;;;5.15;61.55
21944;BME280;11136;48.778;9.126;2024-01-30T07:58:15;98671.69;;;4.07;61.36
21944;BME280;11136;48.778;9.126;2024-01-30T08:00:40;98738.25;;;4.66;61.68
21944;BME280;11136;48.778;9.126;2024-01-30T08:03:05;98702.00;;;4.16;61.36
21944;BME280;11136;48.778;9.126;2024-01-30T08:05:31;98636.50;;;3.91;60.99
21944;BME280;11136;48.778;9.126;2024-01-30T08:07:56;98629.88;;;4.26;61.15
21944;BME280;11136;48.778;9.126;2024-01-30T08:10:21;98711.00;;;4.74;61.38
21944;BME280;11136;48.778;9.126;2024-01-30T08:12:47;98559.41;;;3.97;61.55
21944;BME280;11136;48.778;9.126;2024-01-30T08:15:12;98735.22;;;5.29;61.34
21944;BME280;11136;48.778;9.126;2024-01-30T08:17:40;98722.66;;;4.84;61.04
21944;BME280;11136;48.778;9.126;2024-01-30T08:20:06;98526.03;;;4.15;60.88
21944;BME280;11136;48.778;9.126;2024-01-30T08:22:33;98593.09;;;4.82;60.83
21944;BME280;11136;48.778;9.126;2024-01-30T08:24:59;98856.97;;;6.52;60.64
21944;BME280;11136;48.778;9.126;2024-01-30T08:27:24;98421.69;;;4.27;60.70
21944;BME280;11136;48.778;9.126;2024-01-30T08:29:49;98790.50;;;6.61;59.82
21944;BME280;11136;48.778;9.126;2024-01-30T08:32:15;98684.56;;;6.22;59.97
21944;BME280;11136;48.778;9.126;2024-01-30T08:34:41;98660.66;;;6.27;59.32
21944;BME280;11136;48.778;9.126;2024-01-30T08:37:06;98697.41;;;6.79;59.24
21944;BME280;11136;48.778;9.126;2024-01-30T08:39:31;98587.31;;;6.09;59.06
21944;BME280;11136;48.778;9.126;2024-01-30T08:41:57;98696.38;;;7.13;58.69
21944;BME280;11136;48.778;9.126;2024-01-30T08:44:24;98789.09;;;7.94;59.11
21944;BME280;11136;48.778;9.126;2024-01-30T08:46:49;98835.56;;;8.30;58.70
21944;BME280;11136;48.778;9.126;2024-01-30T08:49:19;98807.13;;;8.16;57.78
21944;BME280;11136;48.778;9.126;2024-01-30T08:51:45;98737.81;;;8.00;57.77
21944;BME280;11136;48.778;9.126;2024-01-30T08:54:11;98703.50;;;7.82;58.04
21944;BME280;11136;48.778;9.126;2024-01-30T08:56:36;98591.13;;;7.07;57.21
21944;BME280;11136;48.778;9.126;2024-01-30T09:02:23;98833.81;;;8.83;57.60
21944;BME280;11136;48.778;9.126;2024-01-30T09:04:48;98543.81;;;6.99;57.16
21944;BME280;11136;48.778;9.126;2024-01-30T09:07:14;98668.78;;;8.02;57.20
21944;BME280;11136;48.778;9.126;2024-01-30T09:09:39;98803.78;;;8.88;56.84
21944;BME280;11136;48.778;9.126;2024-01-30T09:12:08;98868.63;;;9.34;56.76
21944;BME280;11136;48.778;9.126;2024-01-30T09:14:37;98840.56;;;9.55;56.62
21944;BME280;11136;48.778;9.126;2024-01-30T09:17:04;98631.00;;;8.35;56.38
21944;BME280;11136;48.778;9.126;2024-01-30T09:19:29;98845.50;;;9.81;56.15
21944;BME280;11136;48.778;9.126;2024-01-30T09:21:55;98448.50;;;7.51;55.94
21944;BME280;11136;48.778;9.126;2024-01-30T09:24:20;98547.06;;;8.24;56.19
21944;BME280;11136;48.778;9.126;2024-01-30T09:26:45;98770.56;;;9.76;55.91
21944;BME280;11136;48.778;9.126;2024-01-30T09:29:11;98735.56;;;9.76;55.39
21944;BME280;11136;48.778;9.126;2024-01-30T09:31:36;98700.75;;;9.71;55.43
21944;BME280;11136;48.778;9.126;2024-01-30T09:34:02;98848.56;;;10.94;55.30
21944;BME280;11136;48.778;9.126;2024-01-30T09:36:27;98896.69;;;11.08;54.87
21944;BME280;11136;48.778;9.126;2024-01-30T09:38:53;98681.16;;;10.10;54.53
21944;BME280;11136;48.778;9.126;2024-01-30T09:41:19;98728.28;;;10.28;54.07
21944;BME280;11136;48.778;9.126;2024-01-30T09:43:47;98768.69;;;10.81;53.96
21944;BME280;11136;48.778;9.126;2024-01-30T09:46:14;98800.72;;;11.12;53.99
21944;BME280;11136;48.778;9.126;2024-01-30T09:48:42;98623.25;;;10.06;53.43
21944;BME280;11136;48.778;9.126;2024-01-30T09:51:09;98848.38;;;11.55;53.29
21944;BME280;11136;48.778;9.126;2024-01-30T09:53:36;98730.00;;;10.86;53.50
21944;BME280;11136;48.778;9.126;2024-01-30T09:56:03;98681.47;;;10.62;53.06
21944;BME280;11136;48.778;9.126;2024-01-30T09:58:29;98641.41;;;10.41;52.69
21944;BME280;11136;48.778;9.126;2024-01-30T10:00:54;98857.13;;;11.88;52.78
21944;BME280;11136;48.778;9.126;2024-01-30T10:03:19;98653.75;;;10.70;52.41
21944;BME280;11136;48.778;9.126;2024-01-30T10:05:51;98664.41;;;10.80;52.06
21944;BME280;11136;48.778;9.126;2024-01-30T10:08:18;98644.47;;;10.68;51.63
21944;BME280;11136;48.778;9.126;2024-01-30T10:10:47;98818.63;;;11.68;51.74
21944;BME280;11136;48.778;9.126;2024-01-30T10:13:13;98537.94;;;10.04;51.76
21944;BME280;11136;48.778;9.126;2024-01-30T10:15:38;98638.91;;;10.77;51.39
21944;BME280;11136;48.778;9.126;2024-01-30T10:18:04;98465.03;;;9.74;51.13
21944;BME280;11136;48.778;9.126;2024-01-30T10:20:32;98850.81;;;12.13;50.61
21944;BME280;11136;48.778;9.126;2024-01-30T10:22:57;98598.03;;;10.55;50.69
21944;BME280;11136;48.778;9.126;2024-01-30T10:25:22;98634.75;;;10.74;49.58
21944;BME280;11136;48.778;9.126;2024-01-30T10:27:52;98696.44;;;11.09;48.62
21944;BME280;11136;48.778;9.126;2024-01-30T10:30:19;98649.44;;;10.90;48.53
21944;BME280;11136;48.778;9.126;2024-01-30T10:32:44;98716.25;;;11.24;47.31
21944;BME280;11136;48.778;9.126;2024-01-30T10:35:11;98630.53;;;10.73;46.70
21944;BME280;11136;48.778;9.126;2024-01-30T10:37:36;98619.50;;;10.71;45.64
21944;BME280;11136;48.778;9.126;2024-01-30T10:40:03;98838.84;;;12.12;45.70
21944;BME280;11136;48.778;9.126;2024-01-30T10:42:31;98838.53;;;12.18;45.51
21944;BME280;11136;48.778;9.126;2024-01-30T10:45:06;98648.31;;;10.95;44.94
21944;BME280;11136;48.778;9.126;2024-01-30T10:47:34;98804.50;;;11.95;44.32
21944;BME280;11136;48.778;9.126;2024-01-30T10:50:02;98696.53;;;11.25;44.01
21944;BME280;11136;48.778;9.126;2024-01-30T10:52:29;98777.97;;;11.59;44.35
21944;BME280;11136;48.778;9.126;2024-01-30T10:54:55;98629.97;;;11.03;44.39
21944;BME280;11136;48.778;9.126;2024-01-30T10:57:25;98826.38;;;12.39;44.07
21944;BME280;11136;48.778;9.126;2024-01-30T10:59:52;98534.38;;;10.63;44.09
21944;BME280;11136;48.778;9.126;2024-01-30T11:02:19;98528.97;;;10.69;44.00
21944;BME280;11136;48.778;9.126;2024-01-30T11:04:45;98628.53;;;11.33;43.70
21944;BME280;11136;48.778;9.126;2024-01-30T11:07:18;98709.84;;;11.86;43.42
21944;BME280;11136;48.778;9.126;2024-01-30T11:09:50;98737.59;;;11.97;42.96
21944;BME280;11136;48.778;9.126;2024-01-30T11:12:16;98824.00;;;12.69;43.24
21944;BME280;11136;48.778;9.126;2024-01-30T11:14:41;98712.59;;;11.83;43.13
21944;BME280;11136;48.778;9.126;2024-01-30T11:17:09;98823.53;;;12.78;42.95
21944;BME280;11136;48.778;9.126;2024-01-30T11:19:35;98627.75;;;11.49;42.88
21944;BME280;11136;48.778;9.126;2024-01-30T11:22:00;98826.84;;;12.80;42.74
21944;BME280;11136;48.778;9.126;2024-01-30T11:24:27;98655.97;;;11.85;42.97
21944;BME280;11136;48.778;9.126;2024-01-30T11:26:57;98823.97;;;12.86;42.58
21944;BME280;11136;48.778;9.126;2024-01-30T11:29:29;98572.41;;;11.43;42.89
21944;BME280;11136;48.778;9.126;2024-01-30T11:31:55;98740.28;;;12.46;42.94
21944;BME280;11136;48.778;9.126;2024-01-30T11:34:21;98720.56;;;12.29;42.99
21944;BME280;11136;48.778;9.126;2024-01-30T11:36:59;98768.94;;;12.55;42.42
21944;BME280;11136;48.778;9.126;2024-01-30T11:39:29;98691.81;;;12.21;42.26
21944;BME280;11136;48.778;9.126;2024-01-30T11:41:54;98678.66;;;12.27;42.73
21944;BME280;11136;48.778;9.126;2024-01-30T11:44:20;98814.66;;;13.16;42.76
21944;BME280;11136;48.778;9.126;2024-01-30T11:46:50;98731.03;;;12.75;42.57
21944;BME280;11136;48.778;9.126;2024-01-30T11:49:16;98496.75;;;11.16;43.00
21944;BME280;11136;48.778;9.126;2024-01-30T11:51:48;98727.97;;;12.84;42.80
21944;BME280;11136;48.778;9.126;2024-01-30T11:54:15;98735.06;;;12.96;42.59
21944;BME280;11136;48.778;9.126;2024-01-30T11:56:41;98699.41;;;12.73;42.89
21944;BME280;11136;48.778;9.126;2024-01-30T11:59:07;98656.78;;;12.51;42.44
21944;BME280;11136;48.778;9.126;2024-01-30T12:01:32;98741.03;;;12.97;42.65
21944;BME280;11136;48.778;9.126;2024-01-30T12:03:59;98801.53;;;13.53;42.09
21944;BME280;11136;48.778;9.126;2024-01-30T12:06:24;98561.34;;;12.09;41.94
21944;BME280;11136;48.778;9.126;2024-01-30T12:09:03;98699.75;;;12.98;41.60
21944;BME280;11136;48.778;9.126;2024-01-30T12:11:46;98810.19;;;13.52;41.82
21944;BME280;11136;48.778;9.126;2024-01-30T12:14:12;98650.34;;;12.76;41.97
21944;BME280;11136;48.778;9.126;2024-01-30T12:16:37;98435.47;;;11.43;41.44
21944;BME280;11136;48.778;9.126;2024-01-30T12:19:03;98594.53;;;12.29;41.68
21944;BME280;11136;48.778;9.126;2024-01-30T12:21:29;98700.91;;;13.08;41.58
21944;BME280;11136;48.778;9.126;2024-01-30T12:23:55;98412.09;;;11.47;41.69
21944;BME280;11136;48.778;9.126;2024-01-30T12:26:20;98775.31;;;13.76;41.85
21944;BME280;11136;48.778;9.126;2024-01-30T12:28:49;98769.16;;;13.78;41.63
21944;BME280;11136;48.778;9.126;2024-01-30T12:31:15;98613.78;;;12.85;41.93
21944;BME280;11136;48.778;9.126;2024-01-30T12:33:40;98761.47;;;13.93;42.41
21944;BME280;11136;48.778;9.126;2024-01-30T12:36:06;98629.38;;;13.13;41.99
21944;BME280;11136;48.778;9.126;2024-01-30T12:38:32;98401.50;;;11.69;41.44
21944;BME280;11136;48.778;9.126;2024-01-30T12:40:58;98775.63;;;14.16;41.60
21944;BME280;11136;48.778;9.126;2024-01-30T12:43:23;98778.44;;;14.27;41.22
21944;BME280;11136;48.778;9.126;2024-01-30T12:45:50;98691.78;;;13.64;40.96
21944;BME280;11136;48.778;9.126;2024-01-30T12:48:15;98678.25;;;14.05;41.31
21944;BME280;11136;48.778;9.126;2024-01-30T12:50:41;98650.84;;;13.74;41.22
21944;BME280;11136;48.778;9.126;2024-01-30T12:53:06;98522.88;;;13.14;41.39
21944;BME280;11136;48.778;9.126;2024-01-30T12:55:32;98762.00;;;14.72;40.74
21944;BME280;11136;48.778;9.126;2024-01-30T12:57:57;98769.66;;;14.74;40.79
21944;BME280;11136;48.778;9.126;2024-01-30T13:00:23;98509.31;;;13.11;40.61
21944;BME280;11136;48.778;9.126;2024-01-30T13:02:48;98765.69;;;14.82;40.20
21944;BME280;11136;48.778;9.126;2024-01-30T13:05:14;98559.91;;;13.28;40.44